Current Conditions
Mostly Clear
Conditions



Pressure
1024.92 (hPa) - 30.27 (inHG)
Visibility

10.0 (km) - 6.2 (miles)
   Temperature
15  °C
Temperature
-2  °C
Dewpoint
31  %
 Humidity
   Wind Speed
3.6  m/s
8  mph
13  km/h
7  kts
   Wind Direction
N
45°
E
90°
135°
S
180°
225°
W
270°
315°
 110°

East South
East
   Airport Data
ESGG
Gothenburg-Landvetter Airport
Metar :ESGG 190920Z 11007KT 050V140 CAVOK 15/M02 Q1025 R03/09//95
Mon 19th April 10:20 am
   Raw Metar Info
Raw METAR is the most common format in the world for the transmission of observational weather data. It is highly standardized through the International Civil Aviation Organization (ICAO), which allows it to be understood throughout most of the world.
   API Info
Data Provided by
https://www.checkwx.com/weather/ESGG

Aviation Weather providing METAR, TAF, AIRMET, SIGMET and OUTLOOK Weather Reports
   © Info
CSS/SVG/PHP scripts were developed by weather34.com for use in the weather34 template © 2015-2021

Guide Info provided by Metar-Wikipedia